Time;durP1;ratioP1;P1;durP2;ratioP2;P2;SDS_P1;SDS_P2;PMS_P1;PMS_P2;Temp;Humidity;BMP_temperature;BMP_pressure;BME280_temperature;BME280_humidity;BME280_pressure;Samples;Min_cycle;Max_cycle;Signal;HPM_P1;HPM_P2
2021/12/14 00:00:07;;;;;;;13.05;11.65;;;8.70;99.90;;;;;;5077655;28;20104;-79
2021/12/14 00:02:33;;;;;;;15.57;11.32;;;8.70;99.90;;;;;;5074179;28;20455;-78
2021/12/14 00:05:00;;;;;;;13.82;11.07;;;8.70;99.90;;;;;;5094479;28;20083;-78
2021/12/14 00:07:26;;;;;;;15.07;12.45;;;8.70;99.90;;;;;;5092827;28;20055;-78
2021/12/14 00:10:00;;;;;;;15.63;12.65;;;8.70;99.90;;;;;;5076191;28;20185;-77
2021/12/14 00:12:38;;;;;;;14.05;12.20;;;8.70;99.90;;;;;;5089675;28;20051;-78
2021/12/14 00:15:12;;;;;;;15.77;13.20;;;8.70;99.90;;;;;;5094009;28;20110;-78
2021/12/14 00:17:40;;;;;;;15.00;12.45;;;8.70;99.90;;;;;;5076891;28;20047;-78
2021/12/14 00:20:14;;;;;;;15.80;12.68;;;8.70;99.90;;;;;;5093524;28;20044;-76
2021/12/14 00:25:35;;;;;;;15.75;12.82;;;8.70;99.90;;;;;;5074867;28;20123;-76
2021/12/14 00:28:09;;;;;;;14.63;12.88;;;8.70;99.90;;;;;;5077583;28;20039;-76
2021/12/14 00:30:39;;;;;;;16.27;13.70;;;8.70;99.90;;;;;;5077159;28;20040;-77
2021/12/14 00:33:08;;;;;;;15.43;13.82;;;8.70;99.90;;;;;;5064956;28;20043;-76
2021/12/14 00:35:34;;;;;;;16.67;14.25;;;8.70;99.90;;;;;;5076481;28;20047;-77
2021/12/14 00:38:00;;;;;;;16.58;14.45;;;8.70;99.90;;;;;;5076325;28;20043;-77
2021/12/14 00:40:37;;;;;;;17.88;15.02;;;8.70;99.90;;;;;;5093616;28;20048;-77
2021/12/14 00:43:05;;;;;;;17.08;13.68;;;8.70;99.90;;;;;;5092137;28;20044;-78
2021/12/14 00:45:35;;;;;;;15.60;13.98;;;8.70;99.90;;;;;;5076305;28;20052;-77
2021/12/14 00:48:01;;;;;;;15.98;13.77;;;8.70;99.90;;;;;;5076721;28;20036;-77
2021/12/14 00:50:29;;;;;;;18.42;14.63;;;8.70;99.90;;;;;;5092837;28;20078;-77
2021/12/14 00:52:55;;;;;;;21.00;15.60;;;8.70;99.90;;;;;;5093468;28;20047;-80
2021/12/14 00:55:27;;;;;;;16.80;14.88;;;8.70;99.90;;;;;;5105587;28;20047;-78
2021/12/14 00:57:53;;;;;;;17.87;14.20;;;8.70;99.90;;;;;;5055958;28;20423;-79
2021/12/14 01:00:27;;;;;;;17.10;14.68;;;8.60;99.90;;;;;;5091998;28;20281;-78
2021/12/14 01:02:52;;;;;;;20.20;15.43;;;8.70;99.90;;;;;;5093001;28;20569;-78
2021/12/14 01:05:23;;;;;;;16.55;14.85;;;8.70;99.90;;;;;;5092332;28;20039;-78
2021/12/14 01:07:51;;;;;;;18.67;15.55;;;8.60;99.90;;;;;;5076402;28;20047;-77
2021/12/14 01:10:35;;;;;;;21.65;15.50;;;8.60;99.90;;;;;;5076048;28;20039;-78
2021/12/14 01:13:06;;;;;;;16.77;14.73;;;8.60;99.90;;;;;;5076454;28;20043;-78
2021/12/14 01:18:46;;;;;;;16.80;15.10;;;8.60;99.90;;;;;;5092267;28;20043;-78
2021/12/14 01:27:15;;;;;;;18.63;15.32;;;8.60;99.90;;;;;;5091594;28;20043;-76
2021/12/14 01:29:43;;;;;;;16.83;15.05;;;8.60;99.90;;;;;;5075755;28;20084;-77
2021/12/14 01:32:11;;;;;;;16.92;15.00;;;8.60;99.90;;;;;;5075286;28;20153;-77
2021/12/14 01:34:37;;;;;;;19.35;15.48;;;8.60;99.90;;;;;;5076433;28;20043;-79
2021/12/14 01:37:07;;;;;;;18.52;16.13;;;8.50;99.90;;;;;;5089272;28;20051;-78
2021/12/14 01:39:48;;;;;;;17.27;13.68;;;8.60;99.90;;;;;;5088675;28;20044;-78
2021/12/14 01:42:24;;;;;;;17.23;14.73;;;8.60;99.90;;;;;;5089911;28;20381;-76
2021/12/14 01:45:04;;;;;;;18.20;15.57;;;8.50;99.90;;;;;;5078093;28;20133;-76
2021/12/14 01:47:43;;;;;;;17.30;15.02;;;8.50;99.90;;;;;;5055360;28;20059;-76
2021/12/14 01:50:17;;;;;;;20.38;15.95;;;8.60;99.90;;;;;;5092211;28;20052;-75
2021/12/14 01:52:44;;;;;;;18.70;16.50;;;8.50;99.90;;;;;;5075739;28;20122;-76
2021/12/14 01:55:23;;;;;;;18.50;16.25;;;8.50;99.90;;;;;;5090746;28;20051;-76
2021/12/14 01:57:49;;;;;;;19.33;15.63;;;8.50;99.90;;;;;;5075892;28;20101;-76
2021/12/14 02:00:32;;;;;;;17.55;14.73;;;8.50;99.90;;;;;;5081887;28;20074;-75
2021/12/14 02:02:59;;;;;;;19.20;15.02;;;8.50;99.90;;;;;;5077396;28;20514;-76
2021/12/14 02:05:28;;;;;;;20.00;16.52;;;8.50;99.90;;;;;;5079502;28;20035;-76
2021/12/14 02:07:57;;;;;;;18.17;16.17;;;8.50;99.90;;;;;;5096205;28;20047;-77
2021/12/14 02:10:31;;;;;;;20.05;16.40;;;8.50;99.90;;;;;;5079055;28;20141;-77
2021/12/14 02:12:57;;;;;;;17.30;15.50;;;8.50;99.90;;;;;;5079881;28;20040;-77
2021/12/14 02:15:28;;;;;;;20.67;17.00;;;8.50;99.90;;;;;;5078725;28;20070;-77
2021/12/14 02:17:57;;;;;;;18.27;16.38;;;8.50;99.90;;;;;;5096592;28;20043;-76
2021/12/14 02:20:31;;;;;;;23.60;16.00;;;8.50;99.90;;;;;;5095728;28;20515;-78
2021/12/14 02:22:58;;;;;;;19.13;16.98;;;8.50;99.90;;;;;;5095411;28;20130;-78
2021/12/14 02:25:24;;;;;;;21.77;16.95;;;8.50;99.90;;;;;;5091203;28;20051;-77
2021/12/14 02:27:52;;;;;;;19.33;16.83;;;8.40;99.90;;;;;;5070923;28;20043;-77
2021/12/14 02:30:25;;;;;;;20.17;17.45;;;8.40;99.90;;;;;;5096259;28;20047;-78
2021/12/14 02:32:50;;;;;;;;;;;8.40;99.90;;;;;;5097029;28;20051;-77
2021/12/14 02:35:20;;;;;;;19.65;17.15;;;8.50;99.90;;;;;;5078541;28;20337;-77
2021/12/14 02:37:50;;;;;;;22.05;17.70;;;8.50;99.90;;;;;;5078649;28;20082;-79
2021/12/14 02:41:15;;;;;;;21.88;18.85;;;8.40;99.90;;;;;;5077874;28;20079;-78
2021/12/14 02:43:16;;;;;;;21.83;19.13;;;8.40;99.90;;;;;;5099060;28;20083;-79
2021/12/14 02:45:42;;;;;;;21.42;19.02;;;8.40;99.90;;;;;;5078868;28;20748;-79
2021/12/14 02:48:09;;;;;;;24.67;18.95;;;8.40;99.90;;;;;;5086228;28;20105;-76
2021/12/14 02:50:35;;;;;;;25.73;20.27;;;8.40;99.90;;;;;;5061983;28;20035;-79
2021/12/14 02:53:01;;;;;;;26.38;20.45;;;8.40;99.90;;;;;;5095739;28;20092;-79
2021/12/14 02:55:28;;;;;;;26.05;21.77;;;8.50;99.90;;;;;;5078799;28;20054;-80
2021/12/14 02:58:05;;;;;;;27.73;20.90;;;8.40;99.90;;;;;;5071634;28;20040;-79
2021/12/14 03:00:39;;;;;;;26.95;21.10;;;8.50;99.90;;;;;;5078052;28;20044;-79
2021/12/14 03:03:06;;;;;;;25.60;21.10;;;8.50;99.90;;;;;;5078311;28;20040;-77
2021/12/14 03:05:37;;;;;;;28.77;21.65;;;8.50;99.90;;;;;;5078786;28;20510;-77
2021/12/14 03:08:19;;;;;;;27.17;22.52;;;8.50;99.90;;;;;;5078548;28;20040;-77
2021/12/14 03:11:10;;;;;;;24.35;20.48;;;8.50;99.90;;;;;;5073677;28;20511;-76
2021/12/14 03:13:44;;;;;;;28.67;21.83;;;8.50;99.90;;;;;;5095295;28;20047;-77
2021/12/14 03:16:16;;;;;;;28.98;21.77;;;8.50;99.90;;;;;;5095218;28;20084;-77
2021/12/14 03:18:44;;;;;;;28.40;22.73;;;8.50;99.90;;;;;;5094563;28;20047;-78
2021/12/14 03:21:32;;;;;;;29.45;22.98;;;8.50;99.90;;;;;;5095609;28;20075;-80
2021/12/14 03:24:06;;;;;;;26.65;21.77;;;8.50;99.90;;;;;;5074595;28;20081;-79
2021/12/14 03:26:35;;;;;;;26.20;21.45;;;8.50;99.90;;;;;;5084886;28;20047;-81
2021/12/14 03:29:12;;;;;;;30.95;23.35;;;8.50;99.90;;;;;;5095009;28;20044;-79
2021/12/14 03:31:45;;;;;;;27.90;21.40;;;8.50;99.90;;;;;;5078142;28;20450;-80
2021/12/14 03:34:15;;;;;;;32.28;22.98;;;8.50;99.90;;;;;;5094765;28;20058;-79
2021/12/14 03:37:04;;;;;;;30.33;23.30;;;8.50;99.90;;;;;;5078173;28;20059;-80
2021/12/14 03:39:31;;;;;;;28.67;22.48;;;8.50;99.90;;;;;;5076925;28;20528;-78
2021/12/14 03:42:07;;;;;;;31.38;23.73;;;8.50;99.90;;;;;;5076202;28;20048;-80
2021/12/14 03:44:37;;;;;;;30.35;23.48;;;8.50;99.90;;;;;;5076806;28;20040;-76
2021/12/14 03:47:26;;;;;;;31.30;23.30;;;8.50;99.90;;;;;;5077430;28;20077;-78
2021/12/14 03:49:56;;;;;;;29.77;25.20;;;8.50;99.90;;;;;;5094396;28;20046;-78
2021/12/14 03:52:29;;;;;;;28.75;23.45;;;8.40;99.90;;;;;;5094242;28;20130;-77
2021/12/14 03:54:56;;;;;;;31.15;25.75;;;8.50;99.90;;;;;;5094587;28;20043;-78
2021/12/14 03:57:22;;;;;;;28.65;23.48;;;8.40;99.90;;;;;;5077911;28;20040;-78
2021/12/14 03:59:49;;;;;;;31.30;23.27;;;8.40;99.90;;;;;;5093583;28;20487;-77
2021/12/14 04:02:17;;;;;;;31.58;24.30;;;8.50;99.90;;;;;;5077351;28;20055;-78
2021/12/14 04:04:57;;;;;;;31.48;24.25;;;8.40;99.90;;;;;;5077383;28;20036;-78
2021/12/14 04:07:23;;;;;;;28.52;23.65;;;8.40;99.90;;;;;;5093933;28;20078;-78
2021/12/14 04:09:49;;;;;;;33.20;25.75;;;8.40;99.90;;;;;;5077310;28;20524;-78
2021/12/14 04:12:17;;;;;;;32.15;24.58;;;8.40;99.90;;;;;;5093878;28;20100;-80
2021/12/14 04:14:51;;;;;;;30.10;24.58;;;8.30;99.90;;;;;;5076366;28;20036;-79
2021/12/14 04:17:18;;;;;;;31.20;25.50;;;8.30;99.90;;;;;;5094306;28;20092;-79
2021/12/14 04:19:44;;;;;;;35.05;25.50;;;8.30;99.90;;;;;;5076666;28;20050;-80
2021/12/14 04:22:23;;;;;;;29.25;25.17;;;8.30;99.90;;;;;;5093325;28;20047;-79
2021/12/14 04:24:53;;;;;;;29.75;24.27;;;8.30;99.90;;;;;;5068752;28;20408;-80
2021/12/14 04:27:23;;;;;;;32.35;25.17;;;8.30;99.90;;;;;;5076526;28;20043;-80
2021/12/14 04:29:49;;;;;;;31.15;25.65;;;8.30;99.90;;;;;;5075972;28;20184;-80
2021/12/14 04:32:17;;;;;;;29.42;25.13;;;8.30;99.90;;;;;;5093866;28;20062;-79
2021/12/14 04:34:44;;;;;;;30.35;24.05;;;8.30;99.90;;;;;;5076180;28;20043;-79
2021/12/14 04:37:14;;;;;;;31.23;24.40;;;8.30;99.90;;;;;;5076717;28;20047;-79
2021/12/14 04:39:45;;;;;;;30.10;25.13;;;8.30;99.90;;;;;;5093993;28;20097;-79
2021/12/14 04:53:50;;;;;;;31.33;25.20;;;8.30;99.90;;;;;;5093619;28;20502;-78
2021/12/14 04:56:21;;;;;;;33.53;25.73;;;8.30;99.90;;;;;;5077660;28;20050;-78
2021/12/14 04:59:05;;;;;;;32.65;26.70;;;8.30;99.90;;;;;;5093451;28;20475;-78
2021/12/14 05:01:37;;;;;;;29.95;25.13;;;8.30;99.90;;;;;;5076324;28;20402;-78
2021/12/14 05:04:08;;;;;;;30.20;25.73;;;8.30;99.90;;;;;;5076050;28;20047;-78
2021/12/14 05:06:47;;;;;;;30.60;26.10;;;8.40;99.90;;;;;;5076141;28;20035;-78
2021/12/14 05:09:23;;;;;;;33.63;26.92;;;8.40;99.90;;;;;;5093537;28;20110;-78
2021/12/14 05:11:54;;;;;;;32.45;26.58;;;8.40;99.90;;;;;;5075610;28;20043;-77
2021/12/14 05:14:21;;;;;;;30.85;26.60;;;8.40;99.90;;;;;;5093348;28;20039;-77
2021/12/14 05:16:47;;;;;;;32.13;26.40;;;8.40;99.90;;;;;;5092266;28;20051;-77
2021/12/14 05:19:13;;;;;;;34.03;27.05;;;8.40;99.90;;;;;;5076456;28;20043;-77
2021/12/14 05:21:47;;;;;;;32.13;27.20;;;8.40;99.90;;;;;;5093089;28;20043;-76
2021/12/14 05:24:21;;;;;;;31.67;26.67;;;8.30;99.90;;;;;;5092269;28;20050;-78
2021/12/14 05:26:50;;;;;;;32.08;27.15;;;8.30;99.90;;;;;;5093223;28;20388;-78
2021/12/14 05:29:21;;;;;;;30.83;26.25;;;8.40;99.90;;;;;;5075833;28;20036;-77
2021/12/14 05:31:50;;;;;;;32.90;27.48;;;8.30;99.90;;;;;;5091956;28;20043;-74
2021/12/14 05:34:17;;;;;;;35.95;28.48;;;8.40;99.90;;;;;;5076014;28;20047;-76
2021/12/14 05:36:44;;;;;;;35.42;28.17;;;8.30;99.90;;;;;;5092975;28;20048;-76
2021/12/14 05:44:41;;;;;;;32.47;27.63;;;8.30;99.90;;;;;;5086088;28;20522;-76
2021/12/14 05:47:13;;;;;;;33.45;27.58;;;8.30;99.90;;;;;;5096938;28;20043;-77
2021/12/14 05:49:42;;;;;;;37.70;29.98;;;8.40;99.90;;;;;;5079798;28;20050;-77
2021/12/14 05:52:31;;;;;;;35.38;29.40;;;8.40;99.90;;;;;;5079469;28;20089;-77
2021/12/14 05:54:57;;;;;;;34.75;28.90;;;8.40;99.90;;;;;;5095505;28;20044;-77
2021/12/14 05:57:25;;;;;;;36.35;30.85;;;8.30;99.90;;;;;;5080073;28;20092;-76
2021/12/14 05:59:52;;;;;;;35.80;29.92;;;8.30;99.90;;;;;;5078867;28;20067;-77
2021/12/14 06:02:19;;;;;;;37.97;31.73;;;8.30;99.90;;;;;;5079486;28;20130;-76
2021/12/14 06:04:50;;;;;;;39.40;31.73;;;8.30;99.90;;;;;;5079505;28;20081;-77
2021/12/14 06:07:17;;;;;;;36.78;30.88;;;8.30;99.90;;;;;;5075839;28;20416;-74
2021/12/14 06:09:49;;;;;;;37.55;32.03;;;8.30;99.90;;;;;;5083844;28;20035;-75
2021/12/14 06:12:25;;;;;;;39.30;31.38;;;8.30;99.90;;;;;;5090177;28;20071;-75
2021/12/14 06:14:54;;;;;;;37.72;31.70;;;8.30;99.90;;;;;;5078609;28;20100;-79
2021/12/14 06:17:29;;;;;;;40.25;32.03;;;8.30;99.90;;;;;;5096477;28;20055;-76
2021/12/14 06:20:15;;;;;;;38.30;32.03;;;8.30;99.90;;;;;;5078931;28;20046;-76
2021/12/14 06:22:42;;;;;;;38.88;31.52;;;8.30;99.90;;;;;;5079120;28;20036;-77
2021/12/14 06:25:14;;;;;;;40.22;32.42;;;8.30;99.90;;;;;;5079273;28;20085;-77
2021/12/14 06:27:42;;;;;;;38.72;32.60;;;8.30;99.90;;;;;;5077715;28;20079;-75
2021/12/14 06:30:13;;;;;;;41.15;32.53;;;8.30;99.90;;;;;;5092916;28;20086;-75
2021/12/14 06:32:45;;;;;;;42.22;32.92;;;8.30;99.90;;;;;;5109659;28;20226;-75
2021/12/14 06:35:19;;;;;;;39.13;31.80;;;8.30;99.90;;;;;;5097307;28;20050;-78
2021/12/14 06:41:06;;;;;;;39.80;32.17;;;8.30;99.90;;;;;;5095213;28;20487;-77
2021/12/14 06:43:44;;;;;;;39.50;32.28;;;8.30;99.90;;;;;;5097722;28;20069;-79
2021/12/14 06:46:15;;;;;;;43.05;33.40;;;8.30;99.90;;;;;;5096325;28;20057;-77
2021/12/14 06:48:52;;;;;;;41.25;32.53;;;8.30;99.90;;;;;;5094351;28;20491;-77
2021/12/14 06:51:21;;;;;;;40.03;31.60;;;8.30;99.90;;;;;;5095974;28;20126;-77
2021/12/14 06:53:51;;;;;;;43.72;34.13;;;8.30;99.90;;;;;;5078836;28;20086;-77
2021/12/14 06:56:21;;;;;;;41.45;33.15;;;8.30;99.90;;;;;;5078647;28;20057;-78
2021/12/14 06:59:00;;;;;;;44.08;35.25;;;8.30;99.90;;;;;;5078488;28;20152;-76
2021/12/14 07:01:42;;;;;;;39.65;33.08;;;8.30;99.90;;;;;;5095590;28;20036;-77
2021/12/14 07:04:11;;;;;;;42.97;33.72;;;8.30;99.90;;;;;;5078054;28;20054;-75
2021/12/14 07:06:44;;;;;;;43.95;35.65;;;8.30;99.90;;;;;;5096059;28;20107;-76
2021/12/14 07:09:18;;;;;;;43.22;34.67;;;8.30;99.90;;;;;;5077414;28;20047;-77
2021/12/14 07:11:54;;;;;;;41.55;34.03;;;8.30;99.90;;;;;;5076823;28;20077;-75
2021/12/14 07:14:26;;;;;;;46.08;35.50;;;8.30;99.90;;;;;;5092051;28;20079;-75
2021/12/14 07:16:55;;;;;;;50.70;37.40;;;8.30;99.90;;;;;;5099919;28;20047;-75
2021/12/14 07:19:42;;;;;;;45.83;36.03;;;8.40;99.90;;;;;;5094402;28;20499;-76
2021/12/14 07:25:15;;;;;;;42.17;34.25;;;8.40;99.90;;;;;;5089165;28;20059;-76
2021/12/14 07:27:43;;;;;;;43.03;33.70;;;8.30;99.90;;;;;;5079283;28;20055;-76
2021/12/14 07:30:36;;;;;;;43.92;34.72;;;8.30;99.90;;;;;;5091538;28;20066;-76
2021/12/14 07:33:25;;;;;;;44.97;37.03;;;8.40;99.90;;;;;;5094587;28;20488;-78
2021/12/14 07:36:07;;;;;;;49.05;38.13;;;8.40;99.90;;;;;;5087761;28;20066;-78
2021/12/14 07:38:51;;;;;;;40.83;33.88;;;8.40;99.90;;;;;;5062738;28;20488;-77
2021/12/14 07:41:30;;;;;;;41.83;33.08;;;8.40;99.90;;;;;;5078353;28;20495;-81
2021/12/14 07:44:04;;;;;;;43.20;35.50;;;8.40;99.90;;;;;;5093299;28;20126;-78
2021/12/14 07:46:42;;;;;;;47.33;36.00;;;8.40;99.90;;;;;;5093064;28;20523;-81
2021/12/14 07:49:19;;;;;;;46.35;36.33;;;8.40;99.90;;;;;;5095106;28;20056;-82
2021/12/14 07:51:46;;;;;;;42.25;34.20;;;8.40;99.90;;;;;;5067421;28;20055;-82
2021/12/14 07:54:22;;;;;;;42.00;33.42;;;8.40;99.90;;;;;;5077924;28;20373;-83
2021/12/14 07:56:51;;;;;;;40.90;32.90;;;8.40;99.90;;;;;;5059621;28;20044;-79
2021/12/14 07:59:42;;;;;;;41.33;34.78;;;8.40;99.90;;;;;;5056999;28;20072;-82
2021/12/14 08:02:20;;;;;;;41.72;33.15;;;8.40;99.90;;;;;;5087645;28;20039;-80
2021/12/14 08:04:57;;;;;;;42.70;35.53;;;8.40;99.90;;;;;;5077411;28;20066;-80
2021/12/14 08:07:43;;;;;;;40.30;31.70;;;8.50;99.90;;;;;;5076120;28;20047;-80
2021/12/14 08:10:08;;;;;;;39.78;31.85;;;8.40;99.90;;;;;;5106292;28;20505;-81
2021/12/14 08:12:55;;;;;;;38.80;32.78;;;8.50;99.90;;;;;;5076947;28;20043;-80
2021/12/14 08:15:28;;;;;;;41.08;32.58;;;8.50;99.90;;;;;;5076893;28;20097;-83
2021/12/14 08:18:03;;;;;;;42.63;34.83;;;8.50;99.90;;;;;;5093808;28;20040;-83
2021/12/14 08:20:29;;;;;;;40.72;33.70;;;8.50;99.90;;;;;;5076118;28;20065;-82
2021/12/14 08:22:58;;;;;;;41.45;35.47;;;8.50;99.90;;;;;;5093970;28;20130;-81
2021/12/14 08:25:28;;;;;;;40.58;33.60;;;8.50;99.90;;;;;;5076351;28;20074;-81
2021/12/14 08:28:00;;;;;;;41.70;34.20;;;8.60;99.90;;;;;;5076364;28;20043;-81
2021/12/14 08:30:26;;;;;;;;;;;8.60;99.90;;;;;;5077221;28;20039;-81
2021/12/14 08:32:52;;;;;;;40.42;32.95;;;8.60;99.90;;;;;;5094212;28;19915;-80
2021/12/14 08:35:18;;;;;;;39.97;33.35;;;8.50;99.90;;;;;;5093019;28;20050;-81
2021/12/14 08:37:50;;;;;;;42.10;34.25;;;8.60;99.90;;;;;;5076621;28;20047;-81
2021/12/14 08:40:37;;;;;;;41.45;34.08;;;8.60;99.90;;;;;;5078612;28;20054;-82
2021/12/14 08:43:12;;;;;;;38.28;32.00;;;8.60;99.90;;;;;;5076600;28;20043;-81
2021/12/14 08:45:54;;;;;;;37.20;31.33;;;8.70;99.90;;;;;;5074490;28;20062;-81
2021/12/14 08:48:37;;;;;;;39.38;33.40;;;8.70;99.90;;;;;;5091995;28;20487;-81
2021/12/14 08:51:16;;;;;;;36.65;32.17;;;8.80;99.90;;;;;;5088435;28;20142;-81
2021/12/14 08:53:55;;;;;;;37.40;31.10;;;8.70;99.90;;;;;;5076547;28;20078;-83
2021/12/14 08:56:22;;;;;;;38.25;31.77;;;8.70;99.90;;;;;;5092711;28;20499;-82
2021/12/14 08:58:49;;;;;;;37.53;31.92;;;8.70;99.90;;;;;;5093442;28;20560;-81
2021/12/14 09:01:17;;;;;;;37.20;32.65;;;8.70;99.90;;;;;;5089733;28;20134;-81
2021/12/14 09:03:54;;;;;;;38.55;32.50;;;8.70;99.90;;;;;;5072758;28;20118;-82
2021/12/14 09:06:23;;;;;;;38.08;31.95;;;8.70;99.90;;;;;;5075558;28;20047;-80
2021/12/14 09:08:50;;;;;;;35.55;29.13;;;8.70;99.90;;;;;;5075711;28;20073;-80
2021/12/14 09:11:20;;;;;;;35.75;30.58;;;8.80;99.90;;;;;;5093075;28;20087;-80
2021/12/14 09:13:48;;;;;;;35.05;30.55;;;8.80;99.90;;;;;;5093250;28;20040;-81
2021/12/14 09:16:32;;;;;;;33.25;28.58;;;8.80;99.90;;;;;;5109419;28;20597;-80
2021/12/14 09:19:05;;;;;;;34.17;29.88;;;8.80;99.90;;;;;;5093124;28;20113;-80
2021/12/14 09:21:37;;;;;;;36.15;29.75;;;8.80;99.90;;;;;;5091698;28;20071;-80
2021/12/14 09:24:07;;;;;;;34.25;29.20;;;8.80;99.90;;;;;;5092817;28;20101;-80
2021/12/14 09:26:37;;;;;;;38.15;30.27;;;8.80;99.90;;;;;;5092489;28;20092;-80
2021/12/14 09:29:10;;;;;;;38.75;31.30;;;8.80;99.90;;;;;;5076354;28;20051;-80
2021/12/14 09:31:39;;;;;;;35.63;29.15;;;8.80;99.90;;;;;;5075401;28;20484;-79
2021/12/14 09:34:08;;;;;;;31.90;28.20;;;8.80;99.90;;;;;;5076296;28;20048;-82
2021/12/14 09:36:35;;;;;;;34.47;29.27;;;8.80;99.90;;;;;;5074576;28;20500;-81
2021/12/14 09:39:09;;;;;;;32.25;27.60;;;8.80;99.90;;;;;;5092618;28;20498;-81
2021/12/14 09:41:39;;;;;;;33.58;25.80;;;8.80;99.90;;;;;;5092887;28;20051;-81
2021/12/14 09:44:09;;;;;;;34.38;27.42;;;8.90;99.90;;;;;;5091469;28;20139;-81
2021/12/14 09:46:36;;;;;;;34.75;28.30;;;8.90;99.90;;;;;;5075782;28;20046;-81
2021/12/14 09:49:05;;;;;;;32.83;27.70;;;9.00;99.90;;;;;;5092049;28;20043;-81
2021/12/14 09:51:41;;;;;;;31.52;27.42;;;8.90;99.90;;;;;;5072138;28;20047;-82
2021/12/14 09:54:10;;;;;;;30.10;25.35;;;9.00;99.90;;;;;;5092926;28;20051;-81
2021/12/14 09:56:45;;;;;;;31.50;25.80;;;9.00;99.90;;;;;;5091926;28;20047;-82
2021/12/14 09:59:11;;;;;;;31.40;27.23;;;9.00;99.90;;;;;;5074462;28;20100;-81
2021/12/14 10:01:43;;;;;;;32.67;27.23;;;9.00;99.90;;;;;;5076174;28;20109;-81
2021/12/14 10:04:15;;;;;;;31.92;25.23;;;9.00;99.90;;;;;;5058672;28;20503;-81
2021/12/14 10:06:41;;;;;;;33.72;26.55;;;9.00;99.90;;;;;;5075056;28;20043;-82
2021/12/14 10:09:22;;;;;;;35.65;26.52;;;8.90;99.90;;;;;;5074373;28;20036;-81
2021/12/14 10:12:29;;;;;;;32.83;27.23;;;9.00;99.90;;;;;;5081541;28;20040;-80
2021/12/14 10:14:57;;;;;;;36.63;28.23;;;8.90;99.90;;;;;;5098673;28;20051;-81
2021/12/14 10:17:26;;;;;;;33.28;27.25;;;8.90;99.90;;;;;;5072295;28;20036;-80
2021/12/14 10:19:51;;;;;;;36.08;28.10;;;8.90;99.90;;;;;;5055825;28;20095;-80
2021/12/14 10:22:25;;;;;;;37.22;27.45;;;8.90;99.90;;;;;;5089340;28;20075;-81
2021/12/14 10:24:56;;;;;;;36.55;28.20;;;8.90;99.90;;;;;;5086040;28;20047;-81
2021/12/14 10:27:26;;;;;;;36.97;29.17;;;8.90;99.90;;;;;;5079313;28;20040;-82
2021/12/14 10:29:54;;;;;;;34.53;28.17;;;8.80;99.90;;;;;;5078964;28;20035;-82
2021/12/14 10:32:24;;;;;;;39.25;29.95;;;8.80;99.90;;;;;;5077799;28;20045;-81
2021/12/14 10:34:55;;;;;;;40.20;29.92;;;8.80;99.90;;;;;;5075537;28;20044;-80
2021/12/14 10:37:53;;;;;;;41.13;29.67;;;8.80;99.90;;;;;;5063718;28;20109;-82
2021/12/14 10:43:26;;;;;;;36.40;27.70;;;8.80;99.90;;;;;;5078926;28;20051;-82
2021/12/14 10:45:58;;;;;;;35.92;27.67;;;8.80;99.90;;;;;;5086281;28;20523;-82
2021/12/14 10:48:27;;;;;;;;;;;8.80;99.90;;;;;;5090696;28;20044;-79
2021/12/14 10:50:55;;;;;;;33.92;26.58;;;8.80;99.90;;;;;;5078034;28;20279;-77
2021/12/14 10:53:21;;;;;;;38.10;28.67;;;8.80;99.90;;;;;;5086637;28;20046;-80
2021/12/14 10:55:55;;;;;;;34.97;27.88;;;8.80;99.90;;;;;;5071993;28;20069;-83
2021/12/14 10:58:23;;;;;;;34.45;27.08;;;8.90;99.90;;;;;;5061649;28;20083;-81
2021/12/14 11:01:06;;;;;;;36.08;28.75;;;8.80;99.90;;;;;;5073323;28;20148;-81
2021/12/14 11:03:36;;;;;;;36.38;27.85;;;8.90;99.90;;;;;;5095819;28;20052;-81
2021/12/14 11:06:06;;;;;;;34.97;28.52;;;8.90;99.90;;;;;;5094178;28;20043;-81
2021/12/14 11:11:51;;;;;;;35.85;26.65;;;8.80;99.90;;;;;;5062587;28;20036;-79
2021/12/14 11:14:22;;;;;;;37.92;27.05;;;8.90;99.90;;;;;;5091966;28;20043;-82
2021/12/14 11:19:48;;;;;;;35.83;27.05;;;8.90;99.90;;;;;;5099189;28;20044;-82
2021/12/14 11:22:40;;;;;;;37.08;27.52;;;8.90;99.90;;;;;;5076473;28;20040;-80
2021/12/14 11:25:13;;;;;;;37.03;26.88;;;8.90;99.90;;;;;;5078636;28;20506;-80
2021/12/14 11:27:53;;;;;;;32.47;26.65;;;8.90;99.90;;;;;;5089451;28;20087;-82
2021/12/14 11:30:27;;;;;;;35.60;26.08;;;9.00;99.90;;;;;;5073645;28;20113;-81
2021/12/14 11:33:20;;;;;;;34.38;25.83;;;9.00;99.90;;;;;;5090520;28;20044;-81
2021/12/14 11:36:05;;;;;;;39.42;27.85;;;9.00;99.90;;;;;;5079433;28;20587;-81
2021/12/14 11:38:53;;;;;;;37.15;26.38;;;9.00;99.90;;;;;;5091211;28;20104;-82
2021/12/14 11:41:21;;;;;;;36.33;26.70;;;9.00;99.90;;;;;;5084228;28;20047;-81
2021/12/14 11:44:09;;;;;;;40.13;27.73;;;9.00;99.90;;;;;;5085087;28;20597;-81
2021/12/14 11:46:58;;;;;;;34.30;25.35;;;9.00;99.90;;;;;;5051473;28;20500;-81
2021/12/14 11:49:38;;;;;;;37.65;26.90;;;9.00;99.90;;;;;;5064397;28;20215;-81
2021/12/14 11:52:05;;;;;;;30.00;24.67;;;9.00;99.90;;;;;;5090205;28;20049;-82
2021/12/14 11:54:43;;;;;;;38.85;27.63;;;9.00;99.90;;;;;;5067946;28;20426;-82
2021/12/14 11:57:10;;;;;;;40.20;27.65;;;9.00;99.90;;;;;;5073519;28;20373;-81
2021/12/14 11:59:37;;;;;;;35.33;25.77;;;9.00;99.90;;;;;;5073962;28;20078;-80
2021/12/14 12:02:03;;;;;;;36.65;25.55;;;9.10;99.90;;;;;;5091273;28;20040;-81
2021/12/14 12:04:34;;;;;;;32.92;25.58;;;9.00;99.90;;;;;;5090914;28;20491;-81
2021/12/14 12:09:40;;;;;;;35.72;25.50;;;9.00;99.90;;;;;;5074147;28;20051;-80
2021/12/14 12:12:26;;;;;;;38.08;26.30;;;9.00;99.90;;;;;;5073916;28;20055;-81
2021/12/14 12:15:15;;;;;;;38.72;26.58;;;9.00;99.90;;;;;;5057479;28;20040;-83
2021/12/14 12:17:43;;;;;;;35.95;24.80;;;9.00;99.90;;;;;;5056887;28;20138;-80
2021/12/14 12:20:12;;;;;;;34.05;24.65;;;9.00;99.90;;;;;;5074318;28;20047;-80
2021/12/14 12:22:39;;;;;;;32.47;24.65;;;9.00;99.90;;;;;;5057598;28;20043;-81
2021/12/14 12:25:09;;;;;;;33.25;24.83;;;9.00;99.90;;;;;;5073512;28;20040;-81
2021/12/14 12:27:57;;;;;;;34.70;25.33;;;9.00;99.90;;;;;;5057663;28;20044;-81
2021/12/14 12:30:37;;;;;;;34.40;25.02;;;9.10;99.90;;;;;;5056925;28;20544;-81
2021/12/14 12:33:20;;;;;;;32.58;24.15;;;9.10;99.90;;;;;;5056577;28;20392;-82
2021/12/14 12:35:58;;;;;;;32.47;24.80;;;9.10;99.90;;;;;;5073881;28;20040;-81
2021/12/14 12:38:33;;;;;;;35.15;24.67;;;9.10;99.90;;;;;;5072842;28;20052;-82
2021/12/14 12:41:27;;;;;;;37.20;25.73;;;9.10;99.90;;;;;;5089077;28;20657;-82
2021/12/14 12:43:59;;;;;;;32.40;25.02;;;9.10;99.90;;;;;;5093667;28;20058;-83
2021/12/14 12:46:30;;;;;;;37.60;25.23;;;9.10;99.90;;;;;;5076064;28;20134;-82
2021/12/14 12:49:14;;;;;;;32.38;24.38;;;9.10;99.90;;;;;;5077080;28;20071;-82
2021/12/14 12:52:07;;;;;;;38.08;26.88;;;9.10;99.90;;;;;;5094100;28;20503;-83
2021/12/14 12:54:39;;;;;;;40.47;28.38;;;9.10;99.90;;;;;;5077051;28;20054;-82
2021/12/14 12:57:10;;;;;;;36.08;26.52;;;9.10;99.90;;;;;;5076897;28;20852;-84
2021/12/14 12:59:55;;;;;;;40.70;27.67;;;9.20;99.90;;;;;;5076477;28;20116;-85
2021/12/14 13:02:44;;;;;;;36.85;27.00;;;9.20;99.90;;;;;;5077110;28;20086;-84
2021/12/14 13:05:27;;;;;;;37.67;27.23;;;9.20;99.90;;;;;;5076803;28;20168;-84
2021/12/14 13:07:56;;;;;;;43.13;26.73;;;9.20;99.90;;;;;;5091817;28;20073;-84
2021/12/14 13:10:30;;;;;;;37.75;27.48;;;9.20;99.90;;;;;;5076814;28;20415;-84
2021/12/14 13:13:11;;;;;;;36.03;26.38;;;9.20;99.90;;;;;;5076771;28;20147;-84
2021/12/14 13:15:52;;;;;;;38.92;27.23;;;9.30;99.90;;;;;;5094082;28;20039;-84
2021/12/14 13:18:30;;;;;;;39.72;27.52;;;9.30;99.90;;;;;;5076403;28;20510;-84
2021/12/14 13:21:01;;;;;;;36.30;26.88;;;9.30;99.90;;;;;;5092675;28;20044;-84
2021/12/14 13:23:48;;;;;;;41.75;28.65;;;9.30;99.90;;;;;;5093439;28;20044;-84
2021/12/14 13:26:22;;;;;;;38.63;26.42;;;9.30;99.90;;;;;;5093332;28;20131;-83
2021/12/14 13:28:48;;;;;;;43.53;27.33;;;9.30;99.90;;;;;;5092508;28;20449;-83
2021/12/14 13:31:31;;;;;;;43.00;27.33;;;9.30;99.90;;;;;;5076160;28;20043;-83
2021/12/14 13:33:58;;;;;;;42.83;27.60;;;9.30;99.90;;;;;;5093516;28;20429;-83
2021/12/14 13:36:24;;;;;;;41.70;27.95;;;9.30;99.90;;;;;;5075178;28;20036;-84
2021/12/14 13:38:50;;;;;;;38.28;24.02;;;9.30;99.90;;;;;;5092971;28;20048;-84
2021/12/14 13:42:07;;;;;;;36.42;26.75;;;9.30;99.90;;;;;;5075963;28;20099;-83
2021/12/14 13:44:38;;;;;;;38.53;25.38;;;9.30;99.90;;;;;;5059205;28;20050;-84
2021/12/14 13:47:07;;;;;;;37.97;26.52;;;9.30;99.90;;;;;;5110200;28;20048;-83
2021/12/14 13:49:34;;;;;;;35.88;24.45;;;9.40;99.90;;;;;;5092772;28;20036;-84
2021/12/14 13:51:59;;;;;;;35.03;24.67;;;9.30;99.90;;;;;;5093086;28;20051;-83
2021/12/14 13:54:25;;;;;;;42.28;26.65;;;9.30;99.90;;;;;;5076456;28;20135;-84